sensor_id;sensor_type;location;lat;lon;timestamp;P1;durP1;ratioP1;P2;durP2;ratioP2
18443;SDS011;9350;53.176;8.194;2024-02-28T00:01:07;35.90;;;13.75;;
18443;SDS011;9350;53.176;8.194;2024-02-28T00:03:34;31.27;;;13.55;;
18443;SDS011;9350;53.176;8.194;2024-02-28T00:06:01;35.53;;;14.05;;
18443;SDS011;9350;53.176;8.194;2024-02-28T00:08:28;35.22;;;14.95;;
18443;SDS011;9350;53.176;8.194;2024-02-28T00:10:55;37.22;;;14.30;;
18443;SDS011;9350;53.176;8.194;2024-02-28T00:13:22;35.63;;;14.48;;
18443;SDS011;9350;53.176;8.194;2024-02-28T00:15:51;37.38;;;14.13;;
18443;SDS011;9350;53.176;8.194;2024-02-28T00:18:17;36.35;;;14.68;;
18443;SDS011;9350;53.176;8.194;2024-02-28T00:20:44;36.58;;;14.98;;
18443;SDS011;9350;53.176;8.194;2024-02-28T00:23:11;33.50;;;14.15;;
18443;SDS011;9350;53.176;8.194;2024-02-28T00:25:38;35.83;;;14.98;;
18443;SDS011;9350;53.176;8.194;2024-02-28T00:28:05;33.10;;;13.88;;
18443;SDS011;9350;53.176;8.194;2024-02-28T00:30:31;34.97;;;14.02;;
18443;SDS011;9350;53.176;8.194;2024-02-28T00:33:00;40.20;;;15.70;;
18443;SDS011;9350;53.176;8.194;2024-02-28T00:35:27;38.17;;;14.55;;
18443;SDS011;9350;53.176;8.194;2024-02-28T00:37:57;39.92;;;15.25;;
18443;SDS011;9350;53.176;8.194;2024-02-28T00:40:24;38.65;;;14.88;;
18443;SDS011;9350;53.176;8.194;2024-02-28T00:42:51;34.03;;;14.10;;
18443;SDS011;9350;53.176;8.194;2024-02-28T00:45:18;34.63;;;14.38;;
18443;SDS011;9350;53.176;8.194;2024-02-28T00:47:45;38.10;;;15.00;;
18443;SDS011;9350;53.176;8.194;2024-02-28T00:50:13;35.17;;;13.75;;
18443;SDS011;9350;53.176;8.194;2024-02-28T00:52:40;36.80;;;14.55;;
18443;SDS011;9350;53.176;8.194;2024-02-28T00:55:07;40.28;;;14.93;;
18443;SDS011;9350;53.176;8.194;2024-02-28T00:57:34;37.88;;;15.93;;
18443;SDS011;9350;53.176;8.194;2024-02-28T01:00:00;38.47;;;14.85;;
18443;SDS011;9350;53.176;8.194;2024-02-28T01:02:27;38.35;;;15.40;;
18443;SDS011;9350;53.176;8.194;2024-02-28T01:04:54;43.03;;;16.13;;
18443;SDS011;9350;53.176;8.194;2024-02-28T01:07:22;37.42;;;15.00;;
18443;SDS011;9350;53.176;8.194;2024-02-28T01:09:49;42.67;;;16.48;;
18443;SDS011;9350;53.176;8.194;2024-02-28T01:12:16;38.88;;;15.20;;
18443;SDS011;9350;53.176;8.194;2024-02-28T01:14:42;40.95;;;15.23;;
18443;SDS011;9350;53.176;8.194;2024-02-28T01:17:09;39.67;;;15.52;;
18443;SDS011;9350;53.176;8.194;2024-02-28T01:19:36;43.10;;;16.83;;
18443;SDS011;9350;53.176;8.194;2024-02-28T01:22:03;36.33;;;15.23;;
18443;SDS011;9350;53.176;8.194;2024-02-28T01:24:31;41.03;;;15.73;;
18443;SDS011;9350;53.176;8.194;2024-02-28T01:26:58;37.30;;;15.82;;
18443;SDS011;9350;53.176;8.194;2024-02-28T01:29:25;38.28;;;15.02;;
18443;SDS011;9350;53.176;8.194;2024-02-28T01:31:52;40.45;;;16.52;;
18443;SDS011;9350;53.176;8.194;2024-02-28T01:34:19;39.03;;;14.57;;
18443;SDS011;9350;53.176;8.194;2024-02-28T01:36:46;38.20;;;14.77;;
18443;SDS011;9350;53.176;8.194;2024-02-28T01:39:12;39.38;;;15.55;;
18443;SDS011;9350;53.176;8.194;2024-02-28T01:41:40;40.90;;;16.77;;
18443;SDS011;9350;53.176;8.194;2024-02-28T01:44:08;43.60;;;16.08;;
18443;SDS011;9350;53.176;8.194;2024-02-28T01:46:35;44.55;;;15.55;;
18443;SDS011;9350;53.176;8.194;2024-02-28T01:49:01;43.80;;;16.33;;
18443;SDS011;9350;53.176;8.194;2024-02-28T01:51:29;45.65;;;16.83;;
18443;SDS011;9350;53.176;8.194;2024-02-28T01:53:55;47.80;;;17.23;;
18443;SDS011;9350;53.176;8.194;2024-02-28T01:56:23;50.00;;;17.75;;
18443;SDS011;9350;53.176;8.194;2024-02-28T01:58:53;55.17;;;19.00;;
18443;SDS011;9350;53.176;8.194;2024-02-28T02:01:21;48.00;;;18.95;;
18443;SDS011;9350;53.176;8.194;2024-02-28T02:03:48;58.83;;;19.25;;
18443;SDS011;9350;53.176;8.194;2024-02-28T02:06:14;47.30;;;18.33;;
18443;SDS011;9350;53.176;8.194;2024-02-28T02:08:41;53.20;;;18.75;;
18443;SDS011;9350;53.176;8.194;2024-02-28T02:11:08;49.95;;;18.67;;
18443;SDS011;9350;53.176;8.194;2024-02-28T02:13:35;59.60;;;19.50;;
18443;SDS011;9350;53.176;8.194;2024-02-28T02:16:03;58.30;;;20.30;;
18443;SDS011;9350;53.176;8.194;2024-02-28T02:18:30;58.15;;;20.80;;
18443;SDS011;9350;53.176;8.194;2024-02-28T02:20:58;62.20;;;21.13;;
18443;SDS011;9350;53.176;8.194;2024-02-28T02:23:32;56.63;;;20.20;;
18443;SDS011;9350;53.176;8.194;2024-02-28T02:26:00;64.85;;;21.50;;
18443;SDS011;9350;53.176;8.194;2024-02-28T02:28:27;61.80;;;21.67;;
18443;SDS011;9350;53.176;8.194;2024-02-28T02:30:54;68.93;;;22.42;;
18443;SDS011;9350;53.176;8.194;2024-02-28T02:33:20;64.32;;;22.95;;
18443;SDS011;9350;53.176;8.194;2024-02-28T02:35:47;64.13;;;22.63;;
18443;SDS011;9350;53.176;8.194;2024-02-28T02:38:15;62.50;;;21.80;;
18443;SDS011;9350;53.176;8.194;2024-02-28T02:40:43;66.03;;;22.45;;
18443;SDS011;9350;53.176;8.194;2024-02-28T02:43:11;67.78;;;23.38;;
18443;SDS011;9350;53.176;8.194;2024-02-28T02:45:38;67.30;;;22.85;;
18443;SDS011;9350;53.176;8.194;2024-02-28T02:48:05;58.42;;;20.25;;
18443;SDS011;9350;53.176;8.194;2024-02-28T02:50:32;62.97;;;21.42;;
18443;SDS011;9350;53.176;8.194;2024-02-28T02:52:58;59.08;;;20.77;;
18443;SDS011;9350;53.176;8.194;2024-02-28T02:55:25;53.65;;;19.70;;
18443;SDS011;9350;53.176;8.194;2024-02-28T02:57:53;55.95;;;20.10;;
18443;SDS011;9350;53.176;8.194;2024-02-28T03:00:20;57.65;;;19.67;;
18443;SDS011;9350;53.176;8.194;2024-02-28T03:02:48;54.95;;;20.45;;
18443;SDS011;9350;53.176;8.194;2024-02-28T03:05:14;52.50;;;18.15;;
18443;SDS011;9350;53.176;8.194;2024-02-28T03:07:41;57.72;;;18.67;;
18443;SDS011;9350;53.176;8.194;2024-02-28T03:10:09;54.58;;;19.65;;
18443;SDS011;9350;53.176;8.194;2024-02-28T03:12:36;53.20;;;18.75;;
18443;SDS011;9350;53.176;8.194;2024-02-28T03:15:04;51.97;;;20.23;;
18443;SDS011;9350;53.176;8.194;2024-02-28T03:17:32;52.10;;;18.88;;
18443;SDS011;9350;53.176;8.194;2024-02-28T03:19:59;49.58;;;18.55;;
18443;SDS011;9350;53.176;8.194;2024-02-28T03:22:26;52.45;;;18.90;;
18443;SDS011;9350;53.176;8.194;2024-02-28T03:24:52;52.97;;;18.48;;
18443;SDS011;9350;53.176;8.194;2024-02-28T03:27:19;48.00;;;18.67;;
18443;SDS011;9350;53.176;8.194;2024-02-28T03:29:46;48.80;;;18.70;;
18443;SDS011;9350;53.176;8.194;2024-02-28T03:32:15;43.95;;;17.23;;
18443;SDS011;9350;53.176;8.194;2024-02-28T03:34:41;52.45;;;19.60;;
18443;SDS011;9350;53.176;8.194;2024-02-28T03:37:08;49.58;;;18.55;;
18443;SDS011;9350;53.176;8.194;2024-02-28T03:39:35;47.05;;;18.13;;
18443;SDS011;9350;53.176;8.194;2024-02-28T03:42:02;47.78;;;18.13;;
18443;SDS011;9350;53.176;8.194;2024-02-28T03:44:29;51.90;;;18.65;;
18443;SDS011;9350;53.176;8.194;2024-02-28T03:46:55;51.63;;;18.60;;
18443;SDS011;9350;53.176;8.194;2024-02-28T03:49:24;45.90;;;18.35;;
18443;SDS011;9350;53.176;8.194;2024-02-28T03:51:50;51.05;;;18.25;;
18443;SDS011;9350;53.176;8.194;2024-02-28T03:54:17;51.05;;;18.75;;
18443;SDS011;9350;53.176;8.194;2024-02-28T03:56:44;48.00;;;18.23;;
18443;SDS011;9350;53.176;8.194;2024-02-28T03:59:11;40.85;;;15.75;;
18443;SDS011;9350;53.176;8.194;2024-02-28T04:01:38;41.97;;;16.83;;
18443;SDS011;9350;53.176;8.194;2024-02-28T04:04:04;37.63;;;15.50;;
18443;SDS011;9350;53.176;8.194;2024-02-28T04:06:33;41.95;;;16.27;;
18443;SDS011;9350;53.176;8.194;2024-02-28T04:09:00;41.03;;;15.02;;
18443;SDS011;9350;53.176;8.194;2024-02-28T04:11:28;41.13;;;16.15;;
18443;SDS011;9350;53.176;8.194;2024-02-28T04:13:54;42.85;;;15.88;;
18443;SDS011;9350;53.176;8.194;2024-02-28T04:16:21;41.90;;;16.48;;
18443;SDS011;9350;53.176;8.194;2024-02-28T04:18:48;45.58;;;17.10;;
18443;SDS011;9350;53.176;8.194;2024-02-28T04:21:15;42.53;;;15.95;;
18443;SDS011;9350;53.176;8.194;2024-02-28T04:23:43;45.67;;;17.27;;
18443;SDS011;9350;53.176;8.194;2024-02-28T04:26:10;41.20;;;16.20;;
18443;SDS011;9350;53.176;8.194;2024-02-28T04:28:37;43.97;;;17.10;;
18443;SDS011;9350;53.176;8.194;2024-02-28T04:31:04;44.75;;;17.10;;
18443;SDS011;9350;53.176;8.194;2024-02-28T04:33:32;43.03;;;16.63;;
18443;SDS011;9350;53.176;8.194;2024-02-28T04:35:58;45.67;;;16.40;;
18443;SDS011;9350;53.176;8.194;2024-02-28T04:38:25;46.30;;;17.17;;
18443;SDS011;9350;53.176;8.194;2024-02-28T04:40:53;45.80;;;16.83;;
18443;SDS011;9350;53.176;8.194;2024-02-28T04:43:20;47.35;;;16.83;;
18443;SDS011;9350;53.176;8.194;2024-02-28T04:45:47;45.08;;;17.52;;
18443;SDS011;9350;53.176;8.194;2024-02-28T04:48:14;55.85;;;18.58;;
18443;SDS011;9350;53.176;8.194;2024-02-28T04:50:40;51.35;;;18.63;;
18443;SDS011;9350;53.176;8.194;2024-02-28T04:53:07;47.38;;;16.92;;
18443;SDS011;9350;53.176;8.194;2024-02-28T04:55:34;47.13;;;17.98;;
18443;SDS011;9350;53.176;8.194;2024-02-28T04:58:02;52.50;;;19.27;;
18443;SDS011;9350;53.176;8.194;2024-02-28T05:00:29;49.67;;;17.80;;
18443;SDS011;9350;53.176;8.194;2024-02-28T05:02:56;54.90;;;17.98;;
18443;SDS011;9350;53.176;8.194;2024-02-28T05:05:23;51.63;;;18.73;;
18443;SDS011;9350;53.176;8.194;2024-02-28T05:07:50;53.40;;;19.05;;
18443;SDS011;9350;53.176;8.194;2024-02-28T05:10:16;56.83;;;18.38;;
18443;SDS011;9350;53.176;8.194;2024-02-28T05:12:43;55.72;;;19.48;;
18443;SDS011;9350;53.176;8.194;2024-02-28T05:15:11;53.15;;;18.23;;
18443;SDS011;9350;53.176;8.194;2024-02-28T05:17:39;51.15;;;18.77;;
18443;SDS011;9350;53.176;8.194;2024-02-28T05:20:06;54.28;;;19.75;;
18443;SDS011;9350;53.176;8.194;2024-02-28T05:22:34;57.90;;;19.27;;
18443;SDS011;9350;53.176;8.194;2024-02-28T05:25:00;61.45;;;19.73;;
18443;SDS011;9350;53.176;8.194;2024-02-28T05:27:27;54.85;;;19.15;;
18443;SDS011;9350;53.176;8.194;2024-02-28T05:29:54;55.00;;;18.92;;
18443;SDS011;9350;53.176;8.194;2024-02-28T05:32:22;61.58;;;20.77;;
18443;SDS011;9350;53.176;8.194;2024-02-28T05:34:49;58.35;;;19.42;;
18443;SDS011;9350;53.176;8.194;2024-02-28T05:37:16;56.83;;;19.23;;
18443;SDS011;9350;53.176;8.194;2024-02-28T05:39:43;61.15;;;20.13;;
18443;SDS011;9350;53.176;8.194;2024-02-28T05:42:10;59.63;;;19.73;;
18443;SDS011;9350;53.176;8.194;2024-02-28T05:44:37;64.32;;;21.17;;
18443;SDS011;9350;53.176;8.194;2024-02-28T05:47:04;64.57;;;20.67;;
18443;SDS011;9350;53.176;8.194;2024-02-28T05:49:32;62.47;;;20.92;;
18443;SDS011;9350;53.176;8.194;2024-02-28T05:51:59;55.92;;;19.65;;
18443;SDS011;9350;53.176;8.194;2024-02-28T05:54:25;62.03;;;20.25;;
18443;SDS011;9350;53.176;8.194;2024-02-28T05:56:52;59.30;;;19.55;;
18443;SDS011;9350;53.176;8.194;2024-02-28T05:59:19;62.83;;;20.33;;
18443;SDS011;9350;53.176;8.194;2024-02-28T06:01:46;57.45;;;20.10;;
18443;SDS011;9350;53.176;8.194;2024-02-28T06:04:12;64.70;;;19.85;;
18443;SDS011;9350;53.176;8.194;2024-02-28T06:06:40;69.25;;;21.38;;
18443;SDS011;9350;53.176;8.194;2024-02-28T06:09:07;63.40;;;21.20;;
18443;SDS011;9350;53.176;8.194;2024-02-28T06:11:35;66.78;;;22.25;;
18443;SDS011;9350;53.176;8.194;2024-02-28T06:14:02;68.63;;;21.38;;
18443;SDS011;9350;53.176;8.194;2024-02-28T06:16:30;57.10;;;19.85;;
18443;SDS011;9350;53.176;8.194;2024-02-28T06:18:56;71.78;;;22.35;;
18443;SDS011;9350;53.176;8.194;2024-02-28T06:21:23;64.05;;;20.83;;
18443;SDS011;9350;53.176;8.194;2024-02-28T06:23:52;65.50;;;20.83;;
18443;SDS011;9350;53.176;8.194;2024-02-28T06:26:18;59.78;;;19.50;;
18443;SDS011;9350;53.176;8.194;2024-02-28T06:28:46;67.40;;;20.55;;
18443;SDS011;9350;53.176;8.194;2024-02-28T06:31:14;68.25;;;21.50;;
18443;SDS011;9350;53.176;8.194;2024-02-28T06:33:41;66.13;;;21.50;;
18443;SDS011;9350;53.176;8.194;2024-02-28T06:36:08;71.40;;;22.10;;
18443;SDS011;9350;53.176;8.194;2024-02-28T06:38:34;63.80;;;20.95;;
18443;SDS011;9350;53.176;8.194;2024-02-28T06:41:03;67.43;;;21.35;;
18443;SDS011;9350;53.176;8.194;2024-02-28T06:43:32;65.50;;;21.58;;
18443;SDS011;9350;53.176;8.194;2024-02-28T06:45:59;67.25;;;21.30;;
18443;SDS011;9350;53.176;8.194;2024-02-28T06:48:26;69.32;;;22.27;;
18443;SDS011;9350;53.176;8.194;2024-02-28T06:50:53;71.97;;;21.70;;
18443;SDS011;9350;53.176;8.194;2024-02-28T06:53:20;72.05;;;21.17;;
18443;SDS011;9350;53.176;8.194;2024-02-28T06:55:47;71.07;;;21.02;;
18443;SDS011;9350;53.176;8.194;2024-02-28T06:58:15;74.80;;;22.38;;
18443;SDS011;9350;53.176;8.194;2024-02-28T07:00:42;69.32;;;22.05;;
18443;SDS011;9350;53.176;8.194;2024-02-28T07:03:09;65.25;;;21.15;;
18443;SDS011;9350;53.176;8.194;2024-02-28T07:05:36;62.00;;;20.70;;
18443;SDS011;9350;53.176;8.194;2024-02-28T07:08:03;60.75;;;21.00;;
18443;SDS011;9350;53.176;8.194;2024-02-28T07:10:30;62.75;;;21.52;;
18443;SDS011;9350;53.176;8.194;2024-02-28T07:12:57;62.20;;;20.50;;
18443;SDS011;9350;53.176;8.194;2024-02-28T07:15:25;65.40;;;21.08;;
18443;SDS011;9350;53.176;8.194;2024-02-28T07:17:52;66.63;;;22.05;;
18443;SDS011;9350;53.176;8.194;2024-02-28T07:20:19;64.68;;;21.10;;
18443;SDS011;9350;53.176;8.194;2024-02-28T07:22:46;63.65;;;21.23;;
18443;SDS011;9350;53.176;8.194;2024-02-28T07:25:12;67.00;;;21.33;;
18443;SDS011;9350;53.176;8.194;2024-02-28T07:27:39;58.35;;;20.48;;
18443;SDS011;9350;53.176;8.194;2024-02-28T07:30:06;67.07;;;21.50;;
18443;SDS011;9350;53.176;8.194;2024-02-28T07:32:35;63.45;;;21.15;;
18443;SDS011;9350;53.176;8.194;2024-02-28T07:35:02;59.35;;;20.35;;
18443;SDS011;9350;53.176;8.194;2024-02-28T07:37:29;60.33;;;21.60;;
18443;SDS011;9350;53.176;8.194;2024-02-28T07:39:56;62.03;;;21.13;;
18443;SDS011;9350;53.176;8.194;2024-02-28T07:42:23;55.20;;;19.80;;
18443;SDS011;9350;53.176;8.194;2024-02-28T07:44:50;60.60;;;19.80;;
18443;SDS011;9350;53.176;8.194;2024-02-28T07:47:21;52.75;;;18.95;;
18443;SDS011;9350;53.176;8.194;2024-02-28T07:49:50;58.55;;;21.02;;
18443;SDS011;9350;53.176;8.194;2024-02-28T07:52:16;57.70;;;19.23;;
18443;SDS011;9350;53.176;8.194;2024-02-28T07:54:43;51.05;;;19.90;;
18443;SDS011;9350;53.176;8.194;2024-02-28T07:57:10;53.72;;;19.77;;
18443;SDS011;9350;53.176;8.194;2024-02-28T07:59:40;56.20;;;19.38;;
18443;SDS011;9350;53.176;8.194;2024-02-28T08:02:07;58.00;;;18.83;;
18443;SDS011;9350;53.176;8.194;2024-02-28T08:04:36;52.20;;;18.40;;
18443;SDS011;9350;53.176;8.194;2024-02-28T08:07:05;57.30;;;19.77;;
18443;SDS011;9350;53.176;8.194;2024-02-28T08:09:32;54.30;;;18.85;;
18443;SDS011;9350;53.176;8.194;2024-02-28T08:11:58;47.58;;;17.80;;
18443;SDS011;9350;53.176;8.194;2024-02-28T08:14:26;50.83;;;18.98;;
18443;SDS011;9350;53.176;8.194;2024-02-28T08:16:53;53.13;;;17.58;;
18443;SDS011;9350;53.176;8.194;2024-02-28T08:19:20;55.15;;;19.25;;
18443;SDS011;9350;53.176;8.194;2024-02-28T08:21:47;47.40;;;18.17;;
18443;SDS011;9350;53.176;8.194;2024-02-28T08:24:16;46.95;;;17.75;;
18443;SDS011;9350;53.176;8.194;2024-02-28T08:26:42;49.75;;;19.45;;
18443;SDS011;9350;53.176;8.194;2024-02-28T08:29:09;44.97;;;17.70;;
18443;SDS011;9350;53.176;8.194;2024-02-28T08:31:39;42.63;;;17.35;;
18443;SDS011;9350;53.176;8.194;2024-02-28T08:34:06;54.67;;;19.45;;
18443;SDS011;9350;53.176;8.194;2024-02-28T08:36:33;47.28;;;17.55;;
18443;SDS011;9350;53.176;8.194;2024-02-28T08:39:00;45.47;;;17.77;;
18443;SDS011;9350;53.176;8.194;2024-02-28T08:41:30;48.17;;;18.83;;
18443;SDS011;9350;53.176;8.194;2024-02-28T08:43:58;50.08;;;18.70;;
18443;SDS011;9350;53.176;8.194;2024-02-28T08:46:24;48.33;;;18.15;;
18443;SDS011;9350;53.176;8.194;2024-02-28T08:48:51;48.97;;;18.27;;
18443;SDS011;9350;53.176;8.194;2024-02-28T08:51:18;50.65;;;19.02;;
18443;SDS011;9350;53.176;8.194;2024-02-28T08:53:45;45.13;;;18.13;;
18443;SDS011;9350;53.176;8.194;2024-02-28T08:56:11;44.10;;;17.73;;
18443;SDS011;9350;53.176;8.194;2024-02-28T08:58:40;48.13;;;18.15;;
18443;SDS011;9350;53.176;8.194;2024-02-28T09:01:07;51.75;;;18.85;;
18443;SDS011;9350;53.176;8.194;2024-02-28T09:03:33;48.22;;;18.75;;
18443;SDS011;9350;53.176;8.194;2024-02-28T09:06:00;43.42;;;17.02;;
18443;SDS011;9350;53.176;8.194;2024-02-28T09:08:27;44.58;;;17.73;;
18443;SDS011;9350;53.176;8.194;2024-02-28T09:10:54;48.35;;;18.08;;
18443;SDS011;9350;53.176;8.194;2024-02-28T09:13:21;51.13;;;19.20;;
18443;SDS011;9350;53.176;8.194;2024-02-28T09:15:49;49.38;;;19.70;;
18443;SDS011;9350;53.176;8.194;2024-02-28T09:18:16;48.05;;;18.67;;
18443;SDS011;9350;53.176;8.194;2024-02-28T09:20:42;45.40;;;17.70;;
18443;SDS011;9350;53.176;8.194;2024-02-28T09:23:09;43.95;;;17.90;;
18443;SDS011;9350;53.176;8.194;2024-02-28T09:25:36;47.75;;;17.75;;
18443;SDS011;9350;53.176;8.194;2024-02-28T09:28:03;47.38;;;17.52;;
18443;SDS011;9350;53.176;8.194;2024-02-28T09:30:30;45.53;;;18.85;;
18443;SDS011;9350;53.176;8.194;2024-02-28T09:32:58;40.25;;;17.50;;
18443;SDS011;9350;53.176;8.194;2024-02-28T09:35:25;46.15;;;17.63;;
18443;SDS011;9350;53.176;8.194;2024-02-28T09:37:52;53.67;;;18.48;;
18443;SDS011;9350;53.176;8.194;2024-02-28T09:40:19;53.30;;;17.65;;
18443;SDS011;9350;53.176;8.194;2024-02-28T09:42:47;45.15;;;17.05;;
18443;SDS011;9350;53.176;8.194;2024-02-28T09:45:18;50.63;;;19.38;;
18443;SDS011;9350;53.176;8.194;2024-02-28T09:47:47;45.72;;;18.05;;
18443;SDS011;9350;53.176;8.194;2024-02-28T09:50:15;47.88;;;18.80;;
18443;SDS011;9350;53.176;8.194;2024-02-28T09:52:44;41.63;;;18.40;;
18443;SDS011;9350;53.176;8.194;2024-02-28T09:55:11;42.38;;;17.60;;
18443;SDS011;9350;53.176;8.194;2024-02-28T09:57:38;49.40;;;18.60;;
18443;SDS011;9350;53.176;8.194;2024-02-28T10:00:06;50.97;;;18.05;;
18443;SDS011;9350;53.176;8.194;2024-02-28T10:02:35;50.80;;;18.15;;
18443;SDS011;9350;53.176;8.194;2024-02-28T10:05:05;49.70;;;18.52;;
18443;SDS011;9350;53.176;8.194;2024-02-28T10:07:35;42.33;;;17.10;;
18443;SDS011;9350;53.176;8.194;2024-02-28T10:10:01;45.80;;;18.50;;
18443;SDS011;9350;53.176;8.194;2024-02-28T10:12:30;47.03;;;17.92;;
18443;SDS011;9350;53.176;8.194;2024-02-28T10:14:56;46.08;;;18.55;;
18443;SDS011;9350;53.176;8.194;2024-02-28T10:17:25;44.88;;;17.55;;
18443;SDS011;9350;53.176;8.194;2024-02-28T10:19:52;43.28;;;17.30;;
18443;SDS011;9350;53.176;8.194;2024-02-28T10:22:19;47.28;;;18.60;;
18443;SDS011;9350;53.176;8.194;2024-02-28T10:24:47;50.90;;;17.65;;
18443;SDS011;9350;53.176;8.194;2024-02-28T10:27:15;47.25;;;17.95;;
18443;SDS011;9350;53.176;8.194;2024-02-28T10:29:44;49.70;;;18.20;;
18443;SDS011;9350;53.176;8.194;2024-02-28T10:32:11;53.60;;;18.88;;
18443;SDS011;9350;53.176;8.194;2024-02-28T10:34:38;46.83;;;17.52;;
18443;SDS011;9350;53.176;8.194;2024-02-28T10:37:05;43.85;;;17.20;;
18443;SDS011;9350;53.176;8.194;2024-02-28T10:39:33;42.92;;;16.73;;
18443;SDS011;9350;53.176;8.194;2024-02-28T10:42:02;50.30;;;18.27;;
18443;SDS011;9350;53.176;8.194;2024-02-28T10:44:30;41.95;;;16.77;;
18443;SDS011;9350;53.176;8.194;2024-02-28T10:46:58;43.95;;;16.67;;
18443;SDS011;9350;53.176;8.194;2024-02-28T10:49:27;51.17;;;17.50;;
18443;SDS011;9350;53.176;8.194;2024-02-28T10:51:55;45.92;;;17.63;;
18443;SDS011;9350;53.176;8.194;2024-02-28T10:54:25;45.92;;;16.45;;
18443;SDS011;9350;53.176;8.194;2024-02-28T10:56:55;48.15;;;17.88;;
18443;SDS011;9350;53.176;8.194;2024-02-28T10:59:25;45.45;;;16.73;;
18443;SDS011;9350;53.176;8.194;2024-02-28T11:01:55;45.28;;;18.00;;
18443;SDS011;9350;53.176;8.194;2024-02-28T11:04:22;47.40;;;18.33;;
18443;SDS011;9350;53.176;8.194;2024-02-28T11:06:50;48.90;;;18.48;;
18443;SDS011;9350;53.176;8.194;2024-02-28T11:09:20;49.55;;;17.48;;
18443;SDS011;9350;53.176;8.194;2024-02-28T11:11:50;47.72;;;17.20;;
18443;SDS011;9350;53.176;8.194;2024-02-28T11:14:18;44.85;;;16.90;;
18443;SDS011;9350;53.176;8.194;2024-02-28T11:16:58;44.20;;;16.65;;
18443;SDS011;9350;53.176;8.194;2024-02-28T11:19:27;49.10;;;17.30;;
18443;SDS011;9350;53.176;8.194;2024-02-28T11:21:55;43.67;;;15.80;;
18443;SDS011;9350;53.176;8.194;2024-02-28T11:24:22;47.00;;;16.60;;
18443;SDS011;9350;53.176;8.194;2024-02-28T11:26:50;48.45;;;17.48;;
18443;SDS011;9350;53.176;8.194;2024-02-28T11:29:21;44.33;;;17.10;;
18443;SDS011;9350;53.176;8.194;2024-02-28T11:31:50;48.83;;;16.85;;
18443;SDS011;9350;53.176;8.194;2024-02-28T11:34:18;40.92;;;17.40;;
18443;SDS011;9350;53.176;8.194;2024-02-28T11:36:46;47.38;;;17.17;;
18443;SDS011;9350;53.176;8.194;2024-02-28T11:39:14;43.85;;;16.98;;
18443;SDS011;9350;53.176;8.194;2024-02-28T11:41:42;47.08;;;17.95;;
18443;SDS011;9350;53.176;8.194;2024-02-28T11:44:11;45.95;;;17.52;;
18443;SDS011;9350;53.176;8.194;2024-02-28T11:46:42;51.38;;;16.95;;
18443;SDS011;9350;53.176;8.194;2024-02-28T11:49:10;47.03;;;17.17;;
18443;SDS011;9350;53.176;8.194;2024-02-28T11:51:39;48.60;;;18.13;;
18443;SDS011;9350;53.176;8.194;2024-02-28T11:54:07;43.97;;;16.65;;
18443;SDS011;9350;53.176;8.194;2024-02-28T11:56:33;45.63;;;17.15;;
18443;SDS011;9350;53.176;8.194;2024-02-28T11:59:00;41.38;;;16.75;;
18443;SDS011;9350;53.176;8.194;2024-02-28T12:01:35;45.45;;;16.23;;
18443;SDS011;9350;53.176;8.194;2024-02-28T12:04:02;46.22;;;17.83;;
18443;SDS011;9350;53.176;8.194;2024-02-28T12:06:32;44.70;;;16.85;;
18443;SDS011;9350;53.176;8.194;2024-02-28T12:09:00;45.03;;;16.80;;
18443;SDS011;9350;53.176;8.194;2024-02-28T12:11:28;44.50;;;16.48;;
18443;SDS011;9350;53.176;8.194;2024-02-28T12:13:55;42.92;;;17.52;;
18443;SDS011;9350;53.176;8.194;2024-02-28T12:16:23;41.35;;;16.67;;
18443;SDS011;9350;53.176;8.194;2024-02-28T12:18:51;44.80;;;16.95;;
18443;SDS011;9350;53.176;8.194;2024-02-28T12:21:17;41.53;;;16.25;;
18443;SDS011;9350;53.176;8.194;2024-02-28T12:23:46;42.13;;;17.40;;
18443;SDS011;9350;53.176;8.194;2024-02-28T12:26:14;40.58;;;17.17;;
18443;SDS011;9350;53.176;8.194;2024-02-28T12:28:42;42.60;;;16.92;;
18443;SDS011;9350;53.176;8.194;2024-02-28T12:31:09;46.35;;;17.42;;
18443;SDS011;9350;53.176;8.194;2024-02-28T12:33:36;44.67;;;17.67;;
18443;SDS011;9350;53.176;8.194;2024-02-28T12:36:03;40.50;;;16.63;;
18443;SDS011;9350;53.176;8.194;2024-02-28T12:38:31;42.25;;;17.98;;
18443;SDS011;9350;53.176;8.194;2024-02-28T12:40:59;37.20;;;17.08;;
18443;SDS011;9350;53.176;8.194;2024-02-28T12:43:26;38.85;;;16.65;;
18443;SDS011;9350;53.176;8.194;2024-02-28T12:45:53;43.20;;;17.85;;
18443;SDS011;9350;53.176;8.194;2024-02-28T12:48:20;38.75;;;16.48;;
18443;SDS011;9350;53.176;8.194;2024-02-28T12:50:47;41.90;;;16.00;;
18443;SDS011;9350;53.176;8.194;2024-02-28T12:53:14;39.60;;;15.88;;
18443;SDS011;9350;53.176;8.194;2024-02-28T12:55:41;43.60;;;17.35;;
18443;SDS011;9350;53.176;8.194;2024-02-28T12:58:10;36.42;;;16.25;;
18443;SDS011;9350;53.176;8.194;2024-02-28T13:00:37;43.80;;;16.65;;
18443;SDS011;9350;53.176;8.194;2024-02-28T13:03:04;36.25;;;16.25;;
18443;SDS011;9350;53.176;8.194;2024-02-28T13:05:31;38.90;;;16.02;;
18443;SDS011;9350;53.176;8.194;2024-02-28T13:07:58;40.92;;;16.40;;
18443;SDS011;9350;53.176;8.194;2024-02-28T13:10:25;40.28;;;17.67;;
18443;SDS011;9350;53.176;8.194;2024-02-28T13:12:52;43.80;;;17.88;;
18443;SDS011;9350;53.176;8.194;2024-02-28T13:15:20;42.63;;;18.27;;
18443;SDS011;9350;53.176;8.194;2024-02-28T13:17:47;37.33;;;17.45;;
18443;SDS011;9350;53.176;8.194;2024-02-28T13:20:14;40.70;;;17.27;;
18443;SDS011;9350;53.176;8.194;2024-02-28T13:22:41;38.05;;;17.58;;
18443;SDS011;9350;53.176;8.194;2024-02-28T13:25:08;39.67;;;17.17;;
18443;SDS011;9350;53.176;8.194;2024-02-28T13:27:35;40.22;;;18.40;;
18443;SDS011;9350;53.176;8.194;2024-02-28T13:30:03;39.30;;;17.05;;
18443;SDS011;9350;53.176;8.194;2024-02-28T13:32:32;38.75;;;17.73;;
18443;SDS011;9350;53.176;8.194;2024-02-28T13:34:59;39.50;;;18.13;;
18443;SDS011;9350;53.176;8.194;2024-02-28T13:37:26;36.55;;;17.48;;
18443;SDS011;9350;53.176;8.194;2024-02-28T13:39:53;38.05;;;17.67;;
18443;SDS011;9350;53.176;8.194;2024-02-28T13:42:20;39.30;;;17.77;;
18443;SDS011;9350;53.176;8.194;2024-02-28T13:44:49;36.97;;;17.58;;
18443;SDS011;9350;53.176;8.194;2024-02-28T13:47:16;38.05;;;17.63;;
18443;SDS011;9350;53.176;8.194;2024-02-28T13:49:44;40.78;;;18.40;;
18443;SDS011;9350;53.176;8.194;2024-02-28T13:52:12;43.17;;;19.35;;
18443;SDS011;9350;53.176;8.194;2024-02-28T13:54:39;38.47;;;19.58;;
18443;SDS011;9350;53.176;8.194;2024-02-28T13:57:05;41.20;;;17.60;;
18443;SDS011;9350;53.176;8.194;2024-02-28T13:59:32;38.45;;;17.45;;
18443;SDS011;9350;53.176;8.194;2024-02-28T14:01:59;36.95;;;17.77;;
18443;SDS011;9350;53.176;8.194;2024-02-28T14:04:26;37.95;;;17.42;;
18443;SDS011;9350;53.176;8.194;2024-02-28T14:06:54;40.80;;;17.63;;
18443;SDS011;9350;53.176;8.194;2024-02-28T14:09:21;36.88;;;17.42;;
18443;SDS011;9350;53.176;8.194;2024-02-28T14:11:48;32.17;;;15.55;;
18443;SDS011;9350;53.176;8.194;2024-02-28T14:14:15;34.55;;;17.02;;
18443;SDS011;9350;53.176;8.194;2024-02-28T14:16:42;38.78;;;18.38;;
18443;SDS011;9350;53.176;8.194;2024-02-28T14:19:09;42.53;;;18.08;;
18443;SDS011;9350;53.176;8.194;2024-02-28T14:21:36;41.63;;;19.08;;
18443;SDS011;9350;53.176;8.194;2024-02-28T14:24:04;43.22;;;19.13;;
18443;SDS011;9350;53.176;8.194;2024-02-28T14:26:32;39.75;;;17.63;;
18443;SDS011;9350;53.176;8.194;2024-02-28T14:28:59;38.40;;;17.67;;
18443;SDS011;9350;53.176;8.194;2024-02-28T14:31:26;35.50;;;17.10;;
18443;SDS011;9350;53.176;8.194;2024-02-28T14:33:53;39.75;;;16.65;;